Time;durP1;ratioP1;P1;durP2;ratioP2;P2;SDS_P1;SDS_P2;PMS_P1;PMS_P2;Temp;Humidity;BMP_temperature;BMP_pressure;BME280_temperature;BME280_humidity;BME280_pressure;Samples;Min_cycle;Max_cycle;Signal;HPM_P1;HPM_P2
2021/11/22 05:44:03;;;;;;;69.70;38.58;;;;;;;;;;6349504;22;20038;-76
2021/11/22 05:46:29;;;;;;;61.05;34.92;;;;;;;;;;6318359;22;20074;-77
2021/11/22 05:48:55;;;;;;;57.60;32.50;;;;;;;;;;6355630;22;20048;-77
2021/11/22 05:51:21;;;;;;;54.55;31.15;;;;;;;;;;6355832;22;19983;-77
2021/11/22 05:53:48;;;;;;;50.10;30.83;;;;;;;;;;6355660;22;20003;-78
2021/11/22 05:56:34;;;;;;;43.85;28.67;;;;;;;;;;6337338;22;20007;-76
2021/11/22 05:59:00;;;;;;;48.95;31.65;;;;;;;;;;6334522;22;19994;-77
2021/11/22 06:01:26;;;;;;;50.65;31.17;;;;;;;;;;6354242;22;20006;-76
2021/11/22 06:03:52;;;;;;;48.55;31.30;;;;;;;;;;6325886;22;20340;-75
2021/11/22 06:06:22;;;;;;;58.88;33.20;;;;;;;;;;6357247;22;20002;-72
2021/11/22 06:08:53;;;;;;;50.47;32.72;;;;;;;;;;6325902;22;20003;-78
2021/11/22 06:11:39;;;;;;;48.58;34.75;;;;;;;;;;6362832;22;19995;-78
2021/11/22 06:14:24;;;;;;;48.53;35.25;;;;;;;;;;6366268;22;20014;-80
2021/11/22 06:20:04;;;;;;;60.03;40.92;;;;;;;;;;6322153;22;20017;-80
2021/11/22 06:26:01;;;;;;;67.47;42.83;;;;;;;;;;6303075;22;20014;-80
2021/11/22 06:35:01;;;;;;;60.67;41.15;;;;;;;;;;6182223;23;20060;-79
2021/11/22 06:41:24;;;;;;;53.83;36.67;;;;;;;;;;6066195;23;20087;-79
2021/11/22 06:44:39;;;;;;;51.08;36.47;;;;;;;;;;6067430;23;20022;-80
2021/11/22 06:47:45;;;;;;;53.03;35.35;;;;;;;;;;6011513;23;20028;-80
2021/11/22 06:51:09;;;;;;;55.33;36.53;;;;;;;;;;5955171;23;20039;-79
2021/11/22 07:18:29;;;;;;;52.05;32.25;;;;;;;;;;6353320;22;19921;-79
2021/11/22 07:24:31;;;;;;;46.95;30.33;;;;;;;;;;6365459;22;20018;-80
2021/11/22 07:27:42;;;;;;;51.53;30.13;;;;;;;;;;6362391;22;19999;-80
2021/11/22 07:30:33;;;;;;;48.70;30.85;;;;;;;;;;6363544;22;20013;-81
2021/11/22 07:33:26;;;;;;;65.38;40.42;;;;;;;;;;6300463;22;20042;-80
2021/11/22 07:39:14;;;;;;;63.85;44.58;;;;;;;;;;6240829;23;20063;-80
2021/11/22 07:41:44;;;;;;;57.78;44.08;;;;;;;;;;6217072;23;19999;-81
2021/11/22 07:44:33;;;;;;;55.05;42.20;;;;;;;;;;6238607;23;19996;-79
2021/11/22 07:47:12;;;;;;;52.70;37.90;;;;;;;;;;6215492;23;20009;-79
2021/11/22 07:49:38;;;;;;;55.55;37.40;;;;;;;;;;6228171;23;20191;-77
2021/11/22 07:52:06;;;;;;;51.33;35.28;;;;;;;;;;6223148;23;20005;-78
2021/11/22 07:54:32;;;;;;;53.50;34.97;;;;;;;;;;6198902;23;20450;-78
2021/11/22 07:56:58;;;;;;;55.40;33.90;;;;;;;;;;6192940;23;20020;-76
2021/11/22 07:59:24;;;;;;;53.03;35.38;;;;;;;;;;6220294;23;20074;-78
2021/11/22 08:01:50;;;;;;;53.78;37.17;;;;;;;;;;6221013;23;20035;-77
2021/11/22 08:04:17;;;;;;;48.10;34.42;;;;;;;;;;6234850;22;20019;-78
2021/11/22 08:06:47;;;;;;;56.38;36.40;;;;;;;;;;6230692;23;20004;-75
2021/11/22 08:09:22;;;;;;;50.55;35.60;;;;;;;;;;6257605;23;20095;-78
2021/11/22 08:14:33;;;;;;;53.85;36.63;;;;;;;;;;6248268;23;20158;-75
2021/11/22 08:16:59;;;;;;;55.53;40.60;;;;;;;;;;6249241;23;20020;-77
2021/11/22 08:19:27;;;;;;;60.50;44.08;;;;;;;;;;6250820;22;20024;-78
2021/11/22 08:21:53;;;;;;;72.80;52.47;;;;;;;;;;6290624;22;19999;-78
2021/11/22 08:24:20;;;;;;;78.15;53.25;;;;;;;;;;6315629;22;20307;-77
2021/11/22 08:26:48;;;;;;;75.93;53.35;;;;;;;;;;6317143;22;19999;-77
2021/11/22 08:29:14;;;;;;;76.72;56.13;;;;;;;;;;6328139;22;20018;-75
2021/11/22 08:31:44;;;;;;;78.07;54.83;;;;;;;;;;6293596;22;20106;-74
2021/11/22 08:34:10;;;;;;;83.57;54.20;;;;;;;;;;6317007;22;20010;-72
2021/11/22 08:36:36;;;;;;;78.47;55.58;;;;;;;;;;6316560;22;19999;-73
2021/11/22 08:39:03;;;;;;;71.68;52.92;;;;;;;;;;6291021;22;20003;-73
2021/11/22 08:41:29;;;;;;;78.50;52.33;;;;;;;;;;6290597;22;20003;-74
2021/11/22 08:43:55;;;;;;;82.20;54.90;;;;;;;;;;6299729;22;20077;-73
2021/11/22 08:46:22;;;;;;;86.68;59.13;;;;;;;;;;6330465;22;20019;-75
2021/11/22 08:48:48;;;;;;;95.43;66.13;;;;;;;;;;6331459;22;20018;-75
2021/11/22 08:51:14;;;;;;;101.15;68.03;;;;;;;;;;6304476;22;19986;-72
2021/11/22 08:53:41;;;;;;;98.70;66.63;;;;;;;;;;6298775;22;20011;-72
2021/11/22 08:56:08;;;;;;;90.82;63.95;;;;;;;;;;6293141;22;20027;-74
2021/11/22 08:58:34;;;;;;;86.57;64.18;;;;;;;;;;6311823;22;20425;-76
2021/11/22 09:01:00;;;;;;;92.97;62.67;;;;;;;;;;6283356;22;20082;-77
2021/11/22 09:03:26;;;;;;;95.63;65.40;;;;;;;;;;6315365;22;19999;-76
2021/11/22 09:05:52;;;;;;;101.63;70.85;;;;;;;;;;6310680;22;20483;-75
2021/11/22 09:08:18;;;;;;;127.93;87.13;;;;;;;;;;6310747;22;20098;-76
2021/11/22 09:10:48;;;;;;;123.63;85.38;;;;;;;;;;6313681;22;19995;-75
2021/11/22 09:13:18;;;;;;;119.90;79.03;;;;;;;;;;6285938;22;20019;-76
2021/11/22 09:16:06;;;;;;;110.35;76.18;;;;;;;;;;6284368;22;19999;-73
2021/11/22 09:18:45;;;;;;;116.65;75.10;;;;;;;;;;6325572;22;20000;-75
2021/11/22 09:21:37;;;;;;;115.70;75.97;;;;;;;;;;6331137;22;20007;-80
2021/11/22 09:24:20;;;;;;;126.43;78.95;;;;;;;;;;6331550;22;20064;-77
2021/11/22 09:26:54;;;;;;;138.43;82.97;;;;;;;;;;6334987;22;19999;-72
2021/11/22 09:29:42;;;;;;;135.45;82.03;;;;;;;;;;6307149;22;20007;-76
2021/11/22 09:32:12;;;;;;;137.65;81.55;;;;;;;;;;6322340;22;20000;-79
2021/11/22 09:34:38;;;;;;;144.63;82.53;;;;;;;;;;6337947;22;20029;-77
2021/11/22 09:37:04;;;;;;;148.30;84.97;;;;;;;;;;6326349;22;20009;-76
2021/11/22 09:39:30;;;;;;;152.73;87.13;;;;;;;;;;6342389;22;20065;-76
2021/11/22 09:42:00;;;;;;;166.32;91.13;;;;;;;;;;6323083;22;20006;-77
2021/11/22 09:44:35;;;;;;;150.73;86.50;;;;;;;;;;6351253;22;20082;-78
2021/11/22 09:47:01;;;;;;;159.68;88.25;;;;;;;;;;6348630;22;20035;-72
2021/11/22 09:49:28;;;;;;;151.25;87.35;;;;;;;;;;6347176;22;20011;-76
2021/11/22 09:51:55;;;;;;;168.73;88.15;;;;;;;;;;6316875;22;19999;-73
2021/11/22 09:54:22;;;;;;;156.25;85.13;;;;;;;;;;6313542;22;20651;-76
2021/11/22 09:56:50;;;;;;;172.35;91.45;;;;;;;;;;6315076;22;19994;-77
2021/11/22 09:59:17;;;;;;;182.23;90.60;;;;;;;;;;6342725;22;20506;-74
2021/11/22 10:01:43;;;;;;;177.77;88.90;;;;;;;;;;6295625;22;20003;-76
2021/11/22 10:04:14;;;;;;;194.65;95.35;;;;;;;;;;6348091;22;20022;-74
2021/11/22 10:07:03;;;;;;;204.02;94.82;;;;;;;;;;6327731;22;19999;-75
2021/11/22 10:09:33;;;;;;;208.15;99.55;;;;;;;;;;6354873;22;20022;-74
2021/11/22 10:12:00;;;;;;;199.77;97.95;;;;;;;;;;6365724;22;19979;-75
2021/11/22 10:14:27;;;;;;;201.50;98.68;;;;;;;;;;6336055;22;20001;-75
2021/11/22 10:16:53;;;;;;;190.77;93.47;;;;;;;;;;6364393;22;20007;-74
2021/11/22 10:19:22;;;;;;;172.82;88.93;;;;;;;;;;6352991;22;20486;-72
2021/11/22 10:21:55;;;;;;;178.15;88.95;;;;;;;;;;6344715;22;20003;-73
2021/11/22 10:24:21;;;;;;;161.18;85.70;;;;;;;;;;6329930;22;19995;-77
2021/11/22 10:26:51;;;;;;;154.00;83.47;;;;;;;;;;6364704;22;19987;-76
2021/11/22 10:29:24;;;;;;;159.30;79.88;;;;;;;;;;6334597;22;20039;-75
2021/11/22 10:31:54;;;;;;;154.45;81.40;;;;;;;;;;6335864;22;20058;-74
2021/11/22 10:34:20;;;;;;;152.25;82.25;;;;;;;;;;6364634;22;20021;-75
2021/11/22 10:36:55;;;;;;;148.38;82.22;;;;;;;;;;6337780;22;20010;-75
2021/11/22 10:39:21;;;;;;;161.70;86.13;;;;;;;;;;6336294;22;20014;-75
2021/11/22 10:41:48;;;;;;;163.68;84.13;;;;;;;;;;6337957;22;20371;-75
2021/11/22 10:44:17;;;;;;;167.68;88.82;;;;;;;;;;6337673;22;20007;-76
2021/11/22 10:46:58;;;;;;;166.02;88.28;;;;;;;;;;6364092;22;20050;-76
2021/11/22 10:49:32;;;;;;;155.93;84.05;;;;;;;;;;6360273;22;19999;-77
2021/11/22 10:52:12;;;;;;;156.32;86.53;;;;;;;;;;6334501;22;19987;-73
2021/11/22 10:54:59;;;;;;;172.10;91.72;;;;;;;;;;6335812;22;19999;-73
2021/11/22 10:57:34;;;;;;;171.88;94.00;;;;;;;;;;6332005;22;20463;-72
2021/11/22 11:00:24;;;;;;;170.90;96.88;;;;;;;;;;6359371;22;20424;-72
2021/11/22 11:03:21;;;;;;;171.90;97.35;;;;;;;;;;6361564;22;19997;-72
2021/11/22 11:06:20;;;;;;;165.18;93.72;;;;;;;;;;6174087;23;20116;-72
2021/11/22 11:09:07;;;;;;;161.07;91.82;;;;;;;;;;6207080;23;20005;-72
2021/11/22 11:11:37;;;;;;;167.02;89.85;;;;;;;;;;6206579;23;19997;-73
2021/11/22 11:14:07;;;;;;;178.32;95.70;;;;;;;;;;6183796;23;20016;-78
2021/11/22 11:16:34;;;;;;;178.13;94.43;;;;;;;;;;6195192;23;19997;-79
2021/11/22 11:19:03;;;;;;;184.88;94.60;;;;;;;;;;6196718;23;20005;-78
2021/11/22 11:21:57;;;;;;;176.00;91.30;;;;;;;;;;6192909;23;20088;-76
2021/11/22 11:24:23;;;;;;;179.32;91.28;;;;;;;;;;6206982;23;20012;-75
2021/11/22 11:26:54;;;;;;;187.55;94.53;;;;;;;;;;6209263;23;20005;-78
2021/11/22 11:29:20;;;;;;;181.07;94.28;;;;;;;;;;6208739;23;20009;-74
2021/11/22 11:32:12;;;;;;;187.00;94.50;;;;;;;;;;6208674;23;19989;-77
2021/11/22 11:35:01;;;;;;;168.15;90.07;;;;;;;;;;6205701;23;20061;-75
2021/11/22 11:37:45;;;;;;;183.95;92.03;;;;;;;;;;6264285;23;20011;-75
2021/11/22 11:40:11;;;;;;;;;;;;;;;;;;6243070;23;20008;-76
2021/11/22 11:42:56;;;;;;;188.50;90.55;;;;;;;;;;6269742;23;19899;-76
2021/11/22 11:45:37;;;;;;;188.95;92.15;;;;;;;;;;6303201;22;20019;-76
2021/11/22 11:48:07;;;;;;;190.93;97.63;;;;;;;;;;6333812;22;20010;-76
2021/11/22 11:50:37;;;;;;;188.50;96.18;;;;;;;;;;6352726;22;19995;-77
2021/11/22 11:53:08;;;;;;;202.52;94.40;;;;;;;;;;6349040;22;20025;-77
2021/11/22 11:55:35;;;;;;;332.42;166.57;;;;;;;;;;6349800;22;20002;-78
2021/11/22 11:58:27;;;;;;;355.95;163.75;;;;;;;;;;6321081;22;20089;-77
2021/11/22 12:01:11;;;;;;;267.35;129.15;;;;;;;;;;6350207;22;19999;-78
2021/11/22 12:03:59;;;;;;;247.95;124.10;;;;;;;;;;6350540;22;20032;-77
2021/11/22 12:06:47;;;;;;;191.27;95.78;;;;;;;;;;6347923;22;19983;-78
2021/11/22 12:09:31;;;;;;;214.60;101.78;;;;;;;;;;6343731;22;20437;-77
2021/11/22 12:12:21;;;;;;;232.00;108.00;;;;;;;;;;6353399;22;20002;-78
2021/11/22 12:14:48;;;;;;;176.15;87.53;;;;;;;;;;6345978;22;20003;-78
2021/11/22 12:17:34;;;;;;;176.82;87.40;;;;;;;;;;6350900;22;20069;-78
2021/11/22 12:20:05;;;;;;;192.40;91.78;;;;;;;;;;6321762;22;20053;-76
2021/11/22 12:22:49;;;;;;;183.00;91.63;;;;;;;;;;6315648;22;20053;-77
2021/11/22 12:25:15;;;;;;;;;;;;;;;;;;6347534;22;20046;-78
2021/11/22 12:27:41;;;;;;;173.55;86.57;;;;;;;;;;6347201;22;19910;-75
2021/11/22 12:30:27;;;;;;;183.25;90.68;;;;;;;;;;6323345;22;20045;-74
2021/11/22 12:33:34;;;;;;;177.75;85.15;;;;;;;;;;6233812;23;19991;-74
2021/11/22 12:39:08;;;;;;;182.20;88.88;;;;;;;;;;6241697;22;19999;-77
2021/11/22 12:41:51;;;;;;;186.23;90.72;;;;;;;;;;6237855;23;20005;-69
2021/11/22 12:44:18;;;;;;;178.32;89.40;;;;;;;;;;6212115;23;20031;-75
2021/11/22 12:46:47;;;;;;;183.50;88.38;;;;;;;;;;6213961;23;20509;-76
2021/11/22 12:49:36;;;;;;;181.50;90.05;;;;;;;;;;6215382;23;20031;-76
2021/11/22 12:52:38;;;;;;;186.68;88.93;;;;;;;;;;6220110;23;20005;-74
2021/11/22 12:55:26;;;;;;;180.43;84.68;;;;;;;;;;6178528;23;20044;-76
2021/11/22 12:58:08;;;;;;;186.93;87.38;;;;;;;;;;6185874;23;20161;-76
2021/11/22 13:00:36;;;;;;;184.13;88.00;;;;;;;;;;6184018;23;20028;-77
2021/11/22 13:03:02;;;;;;;171.18;86.25;;;;;;;;;;6186317;23;20387;-75
2021/11/22 13:05:40;;;;;;;176.82;85.63;;;;;;;;;;6191759;23;20005;-78
2021/11/22 13:08:06;;;;;;;184.80;86.95;;;;;;;;;;6188887;23;20013;-74
2021/11/22 13:10:35;;;;;;;188.65;88.28;;;;;;;;;;6226150;23;20012;-73
2021/11/22 13:13:10;;;;;;;198.60;91.47;;;;;;;;;;6245338;23;20410;-77
2021/11/22 13:15:53;;;;;;;186.13;87.78;;;;;;;;;;6244050;23;20083;-75
2021/11/22 13:18:19;;;;;;;191.48;86.35;;;;;;;;;;6244202;23;20000;-74
2021/11/22 13:20:46;;;;;;;209.00;89.15;;;;;;;;;;6242723;23;20311;-75
2021/11/22 13:23:14;;;;;;;205.20;90.38;;;;;;;;;;6242741;23;20012;-74
2021/11/22 13:25:40;;;;;;;206.27;92.68;;;;;;;;;;6243652;23;20042;-75
2021/11/22 13:28:13;;;;;;;212.00;96.20;;;;;;;;;;6226124;22;20040;-74
2021/11/22 13:30:40;;;;;;;204.00;91.80;;;;;;;;;;6339417;22;20003;-77
2021/11/22 13:33:07;;;;;;;196.07;88.78;;;;;;;;;;6340353;22;20027;-75
2021/11/22 13:35:33;;;;;;;209.65;93.35;;;;;;;;;;6339315;22;20063;-74
2021/11/22 13:38:11;;;;;;;213.13;92.95;;;;;;;;;;6339498;22;20417;-77
2021/11/22 13:40:42;;;;;;;210.85;94.47;;;;;;;;;;6339710;22;20003;-75
2021/11/22 13:43:12;;;;;;;218.35;93.22;;;;;;;;;;6339170;22;19999;-74
2021/11/22 13:45:39;;;;;;;212.93;95.30;;;;;;;;;;6339725;22;20102;-74
2021/11/22 13:48:05;;;;;;;217.75;98.93;;;;;;;;;;6340268;22;20007;-74
2021/11/22 13:50:44;;;;;;;213.02;96.45;;;;;;;;;;6312226;22;20006;-75
2021/11/22 13:53:13;;;;;;;206.18;93.45;;;;;;;;;;6311684;22;20302;-74
2021/11/22 13:55:40;;;;;;;209.30;91.85;;;;;;;;;;6339529;22;20071;-76
2021/11/22 13:58:13;;;;;;;202.38;94.68;;;;;;;;;;6343521;22;20002;-75
2021/11/22 14:00:40;;;;;;;215.32;94.32;;;;;;;;;;6340908;22;20486;-76
2021/11/22 14:03:09;;;;;;;198.25;93.15;;;;;;;;;;6340314;22;20058;-74
2021/11/22 14:05:36;;;;;;;212.63;93.57;;;;;;;;;;6341915;22;20002;-74
2021/11/22 14:08:04;;;;;;;207.13;97.65;;;;;;;;;;6340640;22;20517;-74
2021/11/22 14:10:31;;;;;;;216.98;99.38;;;;;;;;;;6340838;22;19999;-77
2021/11/22 14:13:11;;;;;;;211.07;99.72;;;;;;;;;;6340050;22;19998;-75
2021/11/22 14:15:52;;;;;;;220.50;106.13;;;;;;;;;;6351926;22;20448;-73
2021/11/22 14:18:20;;;;;;;215.65;102.18;;;;;;;;;;6332342;22;19999;-74
2021/11/22 14:20:51;;;;;;;198.05;94.88;;;;;;;;;;6332722;22;20021;-74
2021/11/22 14:23:23;;;;;;;201.80;95.05;;;;;;;;;;6352833;22;20007;-78
2021/11/22 14:26:27;;;;;;;215.43;98.43;;;;;;;;;;6354795;22;19979;-75
2021/11/22 14:28:55;;;;;;;199.40;94.65;;;;;;;;;;6205096;23;20012;-74
2021/11/22 14:31:27;;;;;;;216.88;93.22;;;;;;;;;;6230328;23;20017;-76
2021/11/22 14:33:53;;;;;;;216.73;95.35;;;;;;;;;;6234979;23;20005;-74
2021/11/22 14:36:21;;;;;;;224.88;105.10;;;;;;;;;;6209481;23;20001;-76
2021/11/22 14:38:55;;;;;;;232.35;103.25;;;;;;;;;;6215937;23;20008;-76
2021/11/22 14:41:29;;;;;;;;;;;;;;;;;;6239769;23;19993;-75
2021/11/22 14:43:59;;;;;;;248.45;110.50;;;;;;;;;;6239657;23;19892;-75
2021/11/22 14:46:27;;;;;;;252.45;110.20;;;;;;;;;;6185153;23;20013;-76
2021/11/22 14:49:00;;;;;;;229.27;105.03;;;;;;;;;;6211967;23;20023;-73
2021/11/22 14:51:51;;;;;;;239.55;108.63;;;;;;;;;;6198808;23;20032;-77
2021/11/22 14:54:29;;;;;;;226.88;100.57;;;;;;;;;;6199233;23;19993;-72
2021/11/22 14:57:19;;;;;;;223.98;100.82;;;;;;;;;;6307284;22;20418;-73
2021/11/22 14:59:47;;;;;;;209.77;96.07;;;;;;;;;;6334819;22;19986;-78
2021/11/22 15:02:23;;;;;;;231.65;100.75;;;;;;;;;;6303378;22;20070;-77
2021/11/22 15:04:52;;;;;;;202.18;93.10;;;;;;;;;;6334476;22;20425;-75
2021/11/22 15:07:19;;;;;;;207.93;91.50;;;;;;;;;;6328650;22;19990;-75
2021/11/22 15:12:21;;;;;;;196.27;89.18;;;;;;;;;;6341560;22;20022;-78
2021/11/22 15:14:48;;;;;;;196.30;85.18;;;;;;;;;;6335441;22;20007;-78
2021/11/22 15:17:15;;;;;;;193.00;87.85;;;;;;;;;;6335214;22;19995;-83
2021/11/22 15:19:45;;;;;;;188.20;84.75;;;;;;;;;;6315328;22;20042;-76
2021/11/22 15:22:12;;;;;;;186.60;83.65;;;;;;;;;;6328814;22;20067;-75
2021/11/22 15:24:43;;;;;;;189.35;82.45;;;;;;;;;;6335366;22;20002;-77
2021/11/22 15:32:22;;;;;;;216.13;90.60;;;;;;;;;;6308702;22;20019;-75
2021/11/22 15:34:49;;;;;;;205.80;91.88;;;;;;;;;;6306570;22;20393;-76
2021/11/22 15:37:15;;;;;;;205.07;89.72;;;;;;;;;;6308140;22;20030;-74
2021/11/22 15:39:45;;;;;;;185.32;82.47;;;;;;;;;;6308053;22;20006;-75
2021/11/22 15:42:12;;;;;;;200.40;86.75;;;;;;;;;;6308447;22;20019;-76
2021/11/22 15:44:38;;;;;;;190.80;84.70;;;;;;;;;;6306936;22;20497;-75
2021/11/22 15:47:05;;;;;;;188.73;82.97;;;;;;;;;;6309462;22;20078;-75
2021/11/22 15:49:32;;;;;;;186.35;81.40;;;;;;;;;;6307818;22;20007;-75
2021/11/22 15:51:58;;;;;;;191.27;83.40;;;;;;;;;;6306148;22;20065;-75
2021/11/22 15:54:25;;;;;;;191.02;80.30;;;;;;;;;;6307268;22;20006;-75
2021/11/22 15:56:54;;;;;;;192.88;80.75;;;;;;;;;;6310963;22;19999;-77
2021/11/22 15:59:20;;;;;;;202.32;85.65;;;;;;;;;;6316792;22;20010;-73
2021/11/22 16:01:47;;;;;;;197.93;82.43;;;;;;;;;;6325464;22;20023;-77
2021/11/22 16:04:16;;;;;;;193.73;80.68;;;;;;;;;;6311256;22;20007;-77
2021/11/22 16:06:43;;;;;;;193.52;79.28;;;;;;;;;;6310850;22;20074;-76
2021/11/22 16:09:11;;;;;;;198.82;81.50;;;;;;;;;;6312655;22;20007;-77
2021/11/22 16:11:38;;;;;;;195.13;83.28;;;;;;;;;;6323215;22;19999;-76
2021/11/22 16:14:04;;;;;;;185.30;79.28;;;;;;;;;;6314103;22;20340;-75
2021/11/22 16:16:31;;;;;;;188.93;80.25;;;;;;;;;;6310557;22;19999;-76
2021/11/22 16:18:57;;;;;;;206.68;86.63;;;;;;;;;;6309066;22;20003;-76
2021/11/22 16:21:23;;;;;;;190.48;80.15;;;;;;;;;;6308447;22;20030;-75
2021/11/22 16:23:50;;;;;;;192.82;80.88;;;;;;;;;;6304899;22;20003;-74
2021/11/22 16:26:16;;;;;;;187.30;76.00;;;;;;;;;;6305662;22;19999;-74
2021/11/22 16:28:43;;;;;;;200.35;78.90;;;;;;;;;;6304645;22;20348;-75
2021/11/22 16:31:10;;;;;;;206.38;84.28;;;;;;;;;;6304641;22;20023;-74
2021/11/22 16:33:40;;;;;;;206.60;79.10;;;;;;;;;;6330016;22;20017;-77
2021/11/22 16:36:06;;;;;;;198.43;80.93;;;;;;;;;;6335747;22;20019;-72
2021/11/22 16:38:36;;;;;;;207.30;81.10;;;;;;;;;;6329250;22;20009;-73
2021/11/22 16:41:03;;;;;;;210.50;82.65;;;;;;;;;;6341079;22;20010;-76
2021/11/22 16:48:40;;;;;;;200.68;77.68;;;;;;;;;;6315430;22;20023;-77
2021/11/22 16:51:07;;;;;;;201.57;79.25;;;;;;;;;;6309932;22;19999;-74
2021/11/22 16:53:34;;;;;;;204.30;79.00;;;;;;;;;;6307979;22;20504;-74
2021/11/22 16:56:00;;;;;;;199.50;77.38;;;;;;;;;;6306906;22;20056;-74
2021/11/22 16:58:26;;;;;;;195.35;75.38;;;;;;;;;;6305170;22;20152;-74
2021/11/22 17:00:53;;;;;;;187.38;73.65;;;;;;;;;;6307855;22;20437;-74
2021/11/22 17:03:19;;;;;;;196.60;76.20;;;;;;;;;;6307709;22;20003;-74
2021/11/22 17:05:46;;;;;;;194.65;74.22;;;;;;;;;;6306351;22;20065;-75
2021/11/22 17:08:12;;;;;;;183.93;72.35;;;;;;;;;;6307729;22;20049;-75
2021/11/22 17:10:38;;;;;;;188.35;71.18;;;;;;;;;;6307365;22;20004;-74
2021/11/22 17:13:05;;;;;;;190.60;72.93;;;;;;;;;;6305301;22;20332;-74
2021/11/22 17:15:32;;;;;;;189.90;75.53;;;;;;;;;;6305763;22;20015;-75
2021/11/22 17:17:58;;;;;;;187.20;73.40;;;;;;;;;;6307815;22;20008;-77
2021/11/22 17:20:25;;;;;;;171.93;68.90;;;;;;;;;;6306369;22;20375;-74
2021/11/22 17:22:55;;;;;;;191.20;73.00;;;;;;;;;;6306121;22;20061;-75
2021/11/22 17:25:21;;;;;;;187.52;71.70;;;;;;;;;;6307763;22;20011;-75
2021/11/22 17:27:48;;;;;;;193.70;70.13;;;;;;;;;;6307723;22;19995;-76
2021/11/22 17:30:14;;;;;;;184.38;70.80;;;;;;;;;;6309785;22;20080;-76
2021/11/22 17:32:43;;;;;;;169.50;67.07;;;;;;;;;;6313315;22;20067;-77
2021/11/22 17:35:11;;;;;;;185.00;73.13;;;;;;;;;;6318427;22;19999;-77
2021/11/22 17:37:42;;;;;;;203.00;80.00;;;;;;;;;;6319174;22;19999;-77
2021/11/22 17:40:14;;;;;;;192.38;72.70;;;;;;;;;;6325846;22;20000;-79
2021/11/22 17:42:40;;;;;;;198.77;71.60;;;;;;;;;;6320396;22;20059;-76
2021/11/22 17:45:09;;;;;;;190.20;71.28;;;;;;;;;;6315586;22;20078;-76
2021/11/22 17:47:35;;;;;;;193.93;71.15;;;;;;;;;;6315539;22;20094;-77
2021/11/22 17:50:01;;;;;;;185.60;67.80;;;;;;;;;;6313039;22;20022;-75
2021/11/22 17:52:31;;;;;;;193.65;69.38;;;;;;;;;;6314017;22;19995;-76
2021/11/22 17:54:57;;;;;;;183.95;68.93;;;;;;;;;;6323793;22;20010;-73
2021/11/22 17:57:25;;;;;;;189.40;67.35;;;;;;;;;;6323899;22;20003;-75
2021/11/22 17:59:57;;;;;;;200.80;72.07;;;;;;;;;;6293223;22;20059;-79
2021/11/22 18:02:23;;;;;;;204.98;75.50;;;;;;;;;;6299817;22;20004;-74
2021/11/22 18:04:49;;;;;;;218.55;82.45;;;;;;;;;;6271590;22;20008;-76
2021/11/22 18:07:16;;;;;;;285.70;118.95;;;;;;;;;;6276445;22;20008;-75
2021/11/22 18:09:47;;;;;;;316.38;138.98;;;;;;;;;;6270007;22;19992;-74
2021/11/22 18:12:13;;;;;;;271.65;109.43;;;;;;;;;;6285738;22;20453;-76
2021/11/22 18:14:48;;;;;;;241.90;95.32;;;;;;;;;;6279561;22;20004;-71
2021/11/22 18:17:19;;;;;;;228.48;82.53;;;;;;;;;;6275211;22;20067;-78
2021/11/22 18:19:49;;;;;;;219.07;81.47;;;;;;;;;;6276364;22;19994;-78
2021/11/22 18:22:28;;;;;;;252.60;95.90;;;;;;;;;;6267527;22;20011;-77
2021/11/22 18:24:55;;;;;;;210.40;84.55;;;;;;;;;;6303003;22;20004;-78
2021/11/22 18:27:21;;;;;;;220.18;87.47;;;;;;;;;;6275625;22;20008;-80
2021/11/22 18:29:48;;;;;;;234.45;90.35;;;;;;;;;;6298710;22;20019;-74
2021/11/22 18:32:17;;;;;;;211.82;83.15;;;;;;;;;;6327464;22;20008;-79
2021/11/22 18:34:47;;;;;;;209.10;82.15;;;;;;;;;;6325177;22;20023;-74
2021/11/22 18:37:14;;;;;;;205.93;78.63;;;;;;;;;;6309070;22;20045;-77
2021/11/22 18:39:41;;;;;;;182.77;71.75;;;;;;;;;;6319199;22;20022;-74
2021/11/22 18:42:08;;;;;;;200.75;75.18;;;;;;;;;;6330380;22;20050;-76
2021/11/22 18:44:34;;;;;;;198.77;74.13;;;;;;;;;;6332850;22;19995;-75
2021/11/22 18:47:02;;;;;;;186.68;72.35;;;;;;;;;;6335136;22;20002;-80
2021/11/22 18:49:28;;;;;;;188.30;72.00;;;;;;;;;;6330020;22;20384;-77
2021/11/22 18:51:55;;;;;;;211.45;76.35;;;;;;;;;;6322862;22;20003;-78
2021/11/22 18:54:23;;;;;;;182.40;68.10;;;;;;;;;;6315919;22;20311;-79
2021/11/22 18:56:49;;;;;;;189.15;69.88;;;;;;;;;;6323222;22;20013;-79
2021/11/22 18:59:15;;;;;;;172.80;67.60;;;;;;;;;;6319743;22;20037;-72
2021/11/22 19:01:47;;;;;;;171.40;65.40;;;;;;;;;;6312399;22;19999;-78
2021/11/22 19:04:16;;;;;;;201.65;72.53;;;;;;;;;;6314281;22;20029;-77
2021/11/22 19:06:45;;;;;;;182.02;68.18;;;;;;;;;;6312757;22;20026;-78
2021/11/22 19:09:11;;;;;;;191.95;74.85;;;;;;;;;;6313891;22;20018;-76
2021/11/22 19:11:37;;;;;;;206.38;78.57;;;;;;;;;;6317276;22;19999;-77
2021/11/22 19:14:04;;;;;;;213.75;81.88;;;;;;;;;;6313833;22;20409;-77
2021/11/22 19:16:30;;;;;;;227.77;85.57;;;;;;;;;;6312331;22;19995;-77
2021/11/22 19:18:59;;;;;;;224.18;78.82;;;;;;;;;;6309997;22;19991;-77
2021/11/22 19:21:25;;;;;;;202.73;77.18;;;;;;;;;;6311055;22;20310;-77
2021/11/22 19:23:53;;;;;;;182.82;68.05;;;;;;;;;;6314815;22;20070;-78
2021/11/22 19:26:21;;;;;;;208.57;73.07;;;;;;;;;;6320521;22;19980;-74
2021/11/22 19:28:48;;;;;;;207.43;71.20;;;;;;;;;;6333310;22;20003;-80
2021/11/22 19:31:16;;;;;;;190.02;68.75;;;;;;;;;;6335222;22;20024;-75
2021/11/22 19:33:42;;;;;;;229.20;71.78;;;;;;;;;;6332215;22;19988;-75
2021/11/22 19:36:08;;;;;;;203.15;67.65;;;;;;;;;;6326782;22;20029;-75
2021/11/22 19:38:35;;;;;;;221.20;71.57;;;;;;;;;;6325474;22;19999;-78
2021/11/22 19:41:02;;;;;;;213.80;74.55;;;;;;;;;;6323110;22;20010;-77
2021/11/22 19:43:28;;;;;;;217.80;76.13;;;;;;;;;;6328825;22;19983;-79
2021/11/22 19:45:54;;;;;;;193.88;69.88;;;;;;;;;;6321480;22;19999;-77
2021/11/22 19:48:20;;;;;;;213.77;71.68;;;;;;;;;;6308261;22;20007;-76
2021/11/22 19:50:46;;;;;;;208.13;70.35;;;;;;;;;;6310010;22;20306;-77
2021/11/22 19:53:12;;;;;;;199.15;70.80;;;;;;;;;;6309711;22;20325;-74
2021/11/22 19:55:38;;;;;;;210.20;71.93;;;;;;;;;;6306508;22;20013;-76
2021/11/22 19:58:04;;;;;;;231.68;75.22;;;;;;;;;;6309266;22;20019;-76
2021/11/22 20:00:30;;;;;;;214.95;72.53;;;;;;;;;;6307917;22;20027;-77
2021/11/22 20:02:59;;;;;;;202.55;66.95;;;;;;;;;;6309453;22;20006;-78
2021/11/22 20:05:26;;;;;;;217.48;70.45;;;;;;;;;;6332787;22;19981;-73
2021/11/22 20:25:30;;;;;;;216.13;73.13;;;;;;;;;;6340267;22;20349;-78
2021/11/22 20:27:57;;;;;;;237.98;78.38;;;;;;;;;;6316772;22;20007;-77
2021/11/22 20:30:30;;;;;;;235.05;82.50;;;;;;;;;;6319221;22;20006;-78
2021/11/22 20:35:32;;;;;;;193.18;74.28;;;;;;;;;;6343806;22;20022;-76
2021/11/22 20:38:04;;;;;;;186.70;74.18;;;;;;;;;;6314382;22;20083;-76
2021/11/22 20:40:36;;;;;;;172.57;69.03;;;;;;;;;;6313185;22;20003;-76
2021/11/22 20:43:02;;;;;;;166.85;66.93;;;;;;;;;;6314391;22;20433;-76
2021/11/22 20:45:31;;;;;;;177.88;70.70;;;;;;;;;;6311380;22;20013;-76
2021/11/22 20:48:05;;;;;;;179.00;70.45;;;;;;;;;;6312170;22;20003;-76
2021/11/22 20:50:39;;;;;;;166.90;66.15;;;;;;;;;;6315169;22;20007;-76
2021/11/22 20:53:56;;;;;;;;;;;;;;;;;;;;;
2021/11/22 20:56:24;;;;;;;175.55;68.53;;;;;;;;;;6337441;22;20018;-76
2021/11/22 20:59:05;;;;;;;177.95;70.00;;;;;;;;;;6315530;22;20440;-76
2021/11/22 21:01:37;;;;;;;178.00;66.28;;;;;;;;;;6312815;22;20003;-75
2021/11/22 21:04:05;;;;;;;177.10;67.38;;;;;;;;;;6310468;22;20057;-76
2021/11/22 21:06:34;;;;;;;192.10;72.57;;;;;;;;;;6283355;22;20022;-76
2021/11/22 21:09:08;;;;;;;179.55;68.72;;;;;;;;;;6312167;22;20015;-76
2021/11/22 21:11:39;;;;;;;;;;;;;;;;;;6312001;22;19995;-77
2021/11/22 21:14:08;;;;;;;169.07;66.43;;;;;;;;;;6310184;22;19898;-77
2021/11/22 21:16:38;;;;;;;176.27;66.25;;;;;;;;;;6284703;22;20049;-76
2021/11/22 21:19:04;;;;;;;181.55;67.80;;;;;;;;;;6285267;22;20494;-76
2021/11/22 21:21:38;;;;;;;198.50;70.63;;;;;;;;;;6283550;22;20004;-76
2021/11/22 21:24:04;;;;;;;160.13;63.53;;;;;;;;;;6283639;22;20003;-76
2021/11/22 21:26:35;;;;;;;159.55;64.28;;;;;;;;;;6283458;22;20060;-76
2021/11/22 21:29:01;;;;;;;152.00;62.40;;;;;;;;;;6283129;22;20015;-76
2021/11/22 21:31:29;;;;;;;182.88;66.30;;;;;;;;;;6310186;22;19999;-76
2021/11/22 21:33:59;;;;;;;161.10;63.20;;;;;;;;;;6282946;22;20387;-76
2021/11/22 21:36:25;;;;;;;170.15;65.15;;;;;;;;;;6310835;22;20381;-76
2021/11/22 21:39:10;;;;;;;164.98;66.30;;;;;;;;;;6283519;22;20447;-76
2021/11/22 21:41:41;;;;;;;163.68;60.65;;;;;;;;;;6281945;22;20011;-75
2021/11/22 21:44:07;;;;;;;159.75;62.35;;;;;;;;;;6311299;22;20325;-76